createdAt,value
2022-08-25T00:01:33.957Z,21.30
2022-08-25T00:04:02.620Z,21.30
2022-08-25T00:06:30.526Z,21.30
2022-08-25T00:08:59.725Z,21.30
2022-08-25T00:11:30.625Z,21.30
2022-08-25T00:14:03.252Z,21.30
2022-08-25T00:16:33.904Z,21.20
2022-08-25T00:19:05.191Z,21.30
2022-08-25T00:21:32.758Z,21.30
2022-08-25T00:24:02.090Z,21.20
2022-08-25T00:26:29.426Z,21.20
2022-08-25T00:29:01.800Z,21.20
2022-08-25T00:31:37.830Z,21.20
2022-08-25T00:34:09.278Z,21.10
2022-08-25T00:36:36.768Z,21.10
2022-08-25T00:39:05.385Z,21.00
2022-08-25T00:41:32.317Z,20.90
2022-08-25T00:44:01.584Z,21.00
2022-08-25T00:46:36.619Z,20.90
2022-08-25T00:49:07.813Z,20.90
2022-08-25T00:52:04.361Z,20.90
2022-08-25T00:54:39.493Z,20.90
2022-08-25T00:57:09.358Z,20.80
2022-08-25T00:59:36.370Z,20.80
2022-08-25T01:02:05.639Z,20.70
2022-08-25T01:04:34.871Z,20.80
2022-08-25T01:07:02.579Z,20.80
2022-08-25T01:09:32.380Z,20.70
2022-08-25T01:12:00.502Z,20.70
2022-08-25T01:14:28.534Z,20.60
2022-08-25T01:16:55.453Z,20.60
2022-08-25T01:19:22.566Z,20.60
2022-08-25T01:21:51.844Z,20.60
2022-08-25T01:24:29.022Z,20.50
2022-08-25T01:26:55.733Z,20.50
2022-08-25T01:29:22.734Z,20.50
2022-08-25T01:32:01.193Z,20.50
2022-08-25T01:34:31.139Z,20.40
2022-08-25T01:36:59.116Z,20.40
2022-08-25T01:39:27.616Z,20.40
2022-08-25T01:42:06.169Z,20.30
2022-08-25T01:44:36.696Z,20.30
2022-08-25T01:47:04.686Z,20.30
2022-08-25T01:49:32.456Z,20.30
2022-08-25T01:52:11.155Z,20.20
2022-08-25T01:54:38.193Z,20.10
2022-08-25T01:57:05.003Z,20.10
2022-08-25T01:59:31.986Z,20.10
2022-08-25T02:01:59.887Z,20.10
2022-08-25T02:04:32.582Z,20.10
2022-08-25T02:07:01.639Z,20.00
2022-08-25T02:09:28.612Z,20.00
2022-08-25T02:11:56.705Z,19.90
2022-08-25T02:14:24.271Z,20.00
2022-08-25T02:16:53.555Z,19.90
2022-08-25T02:19:21.915Z,19.90
2022-08-25T02:21:48.779Z,19.90
2022-08-25T02:24:15.951Z,19.70
2022-08-25T02:26:43.387Z,19.80
2022-08-25T02:29:11.359Z,19.70
2022-08-25T02:31:41.884Z,19.70
2022-08-25T02:34:10.220Z,19.70
2022-08-25T02:36:38.209Z,19.70
2022-08-25T02:39:07.393Z,19.60
2022-08-25T02:41:34.868Z,19.60
2022-08-25T02:44:04.582Z,19.50
2022-08-25T02:46:32.446Z,19.50
2022-08-25T02:48:59.587Z,19.40
2022-08-25T02:51:28.457Z,19.40
2022-08-25T02:53:57.362Z,19.20
2022-08-25T02:56:25.670Z,19.10
2022-08-25T02:58:52.697Z,18.90
2022-08-25T03:01:20.229Z,18.70
2022-08-25T03:03:50.576Z,18.70
2022-08-25T03:06:20.523Z,18.50
2022-08-25T03:08:47.328Z,18.30
2022-08-25T03:11:14.165Z,18.20
2022-08-25T03:13:41.506Z,18.00
2022-08-25T03:16:10.773Z,18.00
2022-08-25T03:18:39.908Z,18.00
2022-08-25T03:21:07.641Z,17.90
2022-08-25T03:23:34.769Z,17.80
2022-08-25T03:26:20.557Z,17.70
2022-08-25T03:28:47.315Z,17.60
2022-08-25T03:31:14.241Z,17.60
2022-08-25T03:33:40.958Z,17.50
2022-08-25T03:36:08.629Z,17.30
2022-08-25T03:38:38.237Z,17.30
2022-08-25T03:41:16.702Z,17.30
2022-08-25T03:43:43.563Z,17.30
2022-08-25T03:46:30.299Z,17.10
2022-08-25T03:48:57.943Z,17.10
2022-08-25T03:51:28.452Z,17.10
2022-08-25T03:53:56.169Z,17.00
2022-08-25T03:56:22.873Z,17.00
2022-08-25T03:58:51.368Z,16.90
2022-08-25T04:01:18.261Z,16.80
2022-08-25T04:03:45.881Z,16.70
2022-08-25T04:06:13.364Z,16.70
2022-08-25T04:08:40.407Z,16.60
2022-08-25T04:11:12.986Z,16.50
2022-08-25T04:13:41.818Z,16.50
2022-08-25T04:16:14.170Z,16.50
2022-08-25T04:18:42.330Z,16.50
2022-08-25T04:21:10.714Z,16.40
2022-08-25T04:23:42.373Z,16.50
2022-08-25T04:26:24.927Z,16.40
2022-08-25T04:28:52.672Z,16.30
2022-08-25T04:31:21.756Z,16.20
2022-08-25T04:33:48.984Z,16.10
2022-08-25T04:36:17.422Z,16.10
2022-08-25T04:38:45.327Z,16.10
2022-08-25T04:41:14.022Z,16.10
2022-08-25T04:43:42.158Z,16.10
2022-08-25T04:46:12.407Z,16.00
2022-08-25T04:48:40.541Z,16.10
2022-08-25T04:51:10.988Z,16.20
2022-08-25T04:53:38.998Z,16.20
2022-08-25T04:56:07.697Z,16.10
2022-08-25T04:58:34.845Z,16.10
2022-08-25T05:01:06.245Z,16.20
2022-08-25T05:03:33.498Z,16.10
2022-08-25T05:06:00.521Z,16.10
2022-08-25T05:08:27.264Z,16.10
2022-08-25T05:10:56.484Z,16.20
2022-08-25T05:13:24.493Z,16.30
2022-08-25T05:15:56.211Z,16.20
2022-08-25T05:18:27.122Z,16.30
2022-08-25T05:20:54.907Z,16.80
2022-08-25T05:23:25.119Z,17.30
2022-08-25T05:25:52.863Z,17.70
2022-08-25T05:28:20.783Z,18.00
2022-08-25T05:30:49.318Z,18.30
2022-08-25T05:33:16.890Z,18.40
2022-08-25T05:35:43.882Z,18.50
2022-08-25T05:38:15.334Z,18.60
2022-08-25T05:40:42.543Z,18.60
2022-08-25T05:43:10.083Z,18.70
2022-08-25T05:45:36.793Z,18.80
2022-08-25T05:48:03.879Z,18.90
2022-08-25T05:50:30.716Z,18.90
2022-08-25T05:52:57.507Z,19.00
2022-08-25T05:55:24.245Z,19.10
2022-08-25T05:57:51.031Z,19.20
2022-08-25T06:00:18.640Z,19.20
2022-08-25T06:02:46.292Z,19.30
2022-08-25T06:05:18.947Z,19.50
2022-08-25T06:07:51.130Z,19.40
2022-08-25T06:10:20.096Z,19.60
2022-08-25T06:12:47.354Z,19.60
2022-08-25T06:15:17.194Z,19.70
2022-08-25T06:17:44.261Z,19.70
2022-08-25T06:20:14.731Z,19.80
2022-08-25T06:22:41.967Z,19.90
2022-08-25T06:25:10.692Z,20.00
2022-08-25T06:27:38.219Z,20.10
2022-08-25T06:30:08.283Z,20.20
2022-08-25T06:32:36.782Z,20.30
2022-08-25T06:35:10.415Z,20.40
2022-08-25T06:37:37.573Z,20.40
2022-08-25T06:40:06.738Z,20.50
2022-08-25T06:42:33.720Z,20.60
2022-08-25T06:45:01.414Z,20.80
2022-08-25T06:47:28.379Z,21.00
2022-08-25T06:49:55.088Z,21.20
2022-08-25T06:52:21.853Z,21.40
2022-08-25T06:54:56.090Z,21.60
2022-08-25T06:57:23.090Z,21.90
2022-08-25T06:59:49.830Z,22.00
2022-08-25T07:02:22.253Z,22.00
2022-08-25T07:04:49.575Z,22.00
2022-08-25T07:07:16.277Z,22.10
2022-08-25T07:09:42.967Z,22.20
2022-08-25T07:12:09.771Z,22.20
2022-08-25T07:14:36.872Z,22.30
2022-08-25T07:17:10.492Z,22.50
2022-08-25T07:19:39.387Z,22.60
2022-08-25T07:22:07.756Z,22.70
2022-08-25T07:24:36.196Z,23.00
2022-08-25T07:27:03.207Z,23.30
2022-08-25T07:29:33.164Z,23.60
2022-08-25T07:32:01.543Z,23.90
2022-08-25T07:34:51.996Z,23.90
2022-08-25T07:40:09.168Z,23.70
2022-08-25T07:42:37.781Z,23.70
2022-08-25T07:45:06.227Z,24.00
2022-08-25T07:47:34.650Z,24.00
2022-08-25T07:50:01.757Z,24.00
2022-08-25T07:52:28.407Z,24.20
2022-08-25T07:54:55.251Z,24.20
2022-08-25T07:57:24.004Z,24.60
2022-08-25T07:59:50.777Z,24.50
2022-08-25T08:02:19.354Z,25.00
2022-08-25T08:04:49.114Z,24.70
2022-08-25T08:07:23.430Z,24.80
2022-08-25T08:10:00.399Z,25.00
2022-08-25T08:12:38.529Z,25.40
2022-08-25T08:15:10.142Z,25.80
2022-08-25T08:17:38.384Z,26.00
2022-08-25T08:20:10.166Z,26.40
2022-08-25T08:22:42.592Z,26.60
2022-08-25T08:25:13.733Z,26.70
2022-08-25T08:27:46.132Z,26.70
2022-08-25T08:30:13.568Z,26.20
2022-08-25T08:33:05.897Z,26.00
2022-08-25T08:35:27.539Z,25.70
2022-08-25T08:37:54.267Z,26.00
2022-08-25T08:40:21.784Z,26.50
2022-08-25T08:43:02.350Z,26.50
2022-08-25T08:45:43.645Z,26.00
2022-08-25T08:48:40.332Z,26.00
2022-08-25T08:51:16.825Z,25.80
2022-08-25T08:53:57.893Z,25.60
2022-08-25T08:56:38.602Z,25.70
2022-08-25T08:59:30.106Z,25.60
2022-08-25T09:02:02.854Z,25.70
2022-08-25T09:04:33.683Z,25.70
2022-08-25T09:07:04.916Z,25.90
2022-08-25T09:09:35.603Z,26.10
2022-08-25T09:12:03.701Z,25.80
2022-08-25T09:14:38.390Z,25.70
2022-08-25T09:17:35.631Z,25.90
2022-08-25T09:20:36.697Z,26.00
2022-08-25T09:23:20.351Z,26.30
2022-08-25T09:26:03.847Z,26.30
2022-08-25T09:28:43.066Z,26.10
2022-08-25T09:31:16.169Z,26.40
2022-08-25T09:33:43.017Z,26.80
2022-08-25T09:36:09.785Z,26.90
2022-08-25T09:38:37.116Z,26.90
2022-08-25T09:41:05.252Z,27.30
2022-08-25T09:43:41.837Z,27.30
2022-08-25T09:46:08.544Z,27.40
2022-08-25T09:48:44.869Z,27.10
2022-08-25T09:51:38.075Z,27.40
2022-08-25T09:54:12.979Z,27.50
2022-08-25T09:56:54.879Z,27.20
2022-08-25T09:59:34.948Z,27.50
2022-08-25T10:02:25.944Z,27.60
2022-08-25T10:04:53.399Z,27.70
2022-08-25T10:07:29.555Z,27.60
2022-08-25T10:10:07.595Z,27.00
2022-08-25T10:12:42.605Z,26.50
2022-08-25T10:15:29.829Z,26.50
2022-08-25T10:18:29.938Z,26.90
2022-08-25T10:21:18.931Z,27.20
2022-08-25T10:23:51.560Z,27.30
2022-08-25T10:26:58.220Z,27.20
2022-08-25T10:29:27.677Z,27.20
2022-08-25T10:32:03.972Z,27.20
2022-08-25T10:34:44.374Z,26.80
2022-08-25T10:37:42.196Z,27.10
2022-08-25T10:40:37.155Z,27.20
2022-08-25T10:43:33.547Z,27.30
2022-08-25T10:46:49.512Z,27.70
2022-08-25T10:49:16.251Z,27.60
2022-08-25T10:51:55.785Z,27.50
2022-08-25T10:54:40.768Z,28.10
2022-08-25T10:57:25.879Z,28.40
2022-08-25T11:00:10.725Z,28.50
2022-08-25T11:03:06.884Z,28.00
2022-08-25T11:05:41.978Z,27.60
2022-08-25T11:08:16.347Z,27.80
2022-08-25T11:10:48.020Z,27.70
2022-08-25T11:13:25.746Z,27.70
2022-08-25T11:16:18.569Z,27.60
2022-08-25T11:18:59.350Z,27.60
2022-08-25T11:21:47.011Z,27.60
2022-08-25T11:24:39.745Z,27.70
2022-08-25T11:27:13.930Z,28.10
2022-08-25T11:29:43.719Z,28.20
2022-08-25T11:32:10.753Z,28.50
2022-08-25T11:34:40.105Z,28.10
2022-08-25T11:37:28.495Z,28.10
2022-08-25T11:40:01.265Z,28.00
2022-08-25T11:42:37.663Z,27.70
2022-08-25T11:45:07.713Z,28.00
2022-08-25T11:47:41.164Z,28.20
2022-08-25T11:50:32.082Z,27.90
2022-08-25T11:53:26.644Z,27.50
2022-08-25T11:55:58.760Z,27.70
2022-08-25T11:58:28.213Z,27.70
2022-08-25T12:01:02.299Z,27.80
2022-08-25T12:03:32.106Z,27.80
2022-08-25T12:06:21.297Z,28.60
2022-08-25T12:09:13.182Z,29.10
2022-08-25T12:11:46.735Z,29.40
2022-08-25T12:14:16.516Z,28.50
2022-08-25T12:16:55.380Z,28.30
2022-08-25T12:19:34.579Z,28.10
2022-08-25T12:22:03.493Z,28.20
2022-08-25T12:25:03.377Z,28.30
2022-08-25T12:27:52.538Z,28.30
2022-08-25T12:30:27.760Z,28.40
2022-08-25T12:33:23.233Z,28.50
2022-08-25T12:35:57.744Z,28.20
2022-08-25T12:38:45.447Z,28.20
2022-08-25T12:41:19.030Z,28.60
2022-08-25T12:43:48.038Z,28.60
2022-08-25T12:46:25.754Z,28.50
2022-08-25T12:49:02.994Z,28.20
2022-08-25T12:51:35.814Z,28.20
2022-08-25T12:54:33.796Z,28.40
2022-08-25T12:57:03.856Z,28.10
2022-08-25T12:59:48.624Z,28.00
2022-08-25T13:02:52.175Z,28.30
2022-08-25T13:05:52.759Z,28.70
2022-08-25T13:08:50.660Z,28.80
2022-08-25T13:11:45.127Z,28.60
2022-08-25T13:14:39.518Z,28.10
2022-08-25T13:17:07.475Z,27.80
2022-08-25T13:19:37.241Z,27.70
2022-08-25T13:22:16.518Z,28.00
2022-08-25T13:24:47.529Z,28.20
2022-08-25T13:27:26.347Z,28.00
2022-08-25T13:29:56.330Z,28.10
2022-08-25T13:32:36.079Z,28.30
2022-08-25T13:35:19.964Z,28.40
2022-08-25T13:37:47.971Z,28.50
2022-08-25T13:40:26.180Z,28.30
2022-08-25T13:43:06.315Z,28.00
2022-08-25T13:45:40.238Z,27.70
2022-08-25T13:48:23.056Z,28.00
2022-08-25T13:50:52.063Z,28.20
2022-08-25T13:53:26.792Z,28.40
2022-08-25T13:56:00.543Z,28.40
2022-08-25T13:58:44.397Z,28.70
2022-08-25T14:01:19.911Z,28.90
2022-08-25T14:04:22.440Z,29.20
2022-08-25T14:07:04.776Z,29.10
2022-08-25T14:09:41.185Z,29.20
2022-08-25T14:12:08.034Z,29.30
2022-08-25T14:14:36.179Z,29.80
2022-08-25T14:17:22.167Z,29.90
2022-08-25T14:19:57.430Z,29.70
2022-08-25T14:22:24.337Z,29.40
2022-08-25T14:24:53.437Z,29.20
2022-08-25T14:27:20.258Z,29.40
2022-08-25T14:29:50.946Z,29.60
2022-08-25T14:32:19.350Z,29.80
2022-08-25T14:34:46.949Z,29.80
2022-08-25T14:37:17.641Z,29.90
2022-08-25T14:39:44.634Z,30.10
2022-08-25T14:42:13.096Z,30.10
2022-08-25T14:44:39.879Z,30.00
2022-08-25T14:47:08.036Z,29.80
2022-08-25T14:49:42.479Z,29.60
2022-08-25T14:52:30.243Z,29.80
2022-08-25T14:54:57.248Z,30.10
2022-08-25T14:57:24.894Z,30.20
2022-08-25T14:59:52.306Z,29.70
2022-08-25T15:02:22.636Z,29.30
2022-08-25T15:05:02.336Z,29.10
2022-08-25T15:07:51.280Z,29.20
2022-08-25T15:10:19.031Z,28.50
2022-08-25T15:12:48.539Z,28.00
2022-08-25T15:15:20.749Z,28.10
2022-08-25T15:17:49.487Z,28.20
2022-08-25T15:20:17.119Z,28.20
2022-08-25T15:22:45.350Z,28.40
2022-08-25T15:25:12.040Z,28.40
2022-08-25T15:27:38.747Z,28.40
2022-08-25T15:30:05.931Z,28.60
2022-08-25T15:32:32.740Z,28.70
2022-08-25T15:35:00.773Z,28.80
2022-08-25T15:37:28.519Z,28.60
2022-08-25T15:39:55.865Z,28.70
2022-08-25T15:42:22.756Z,28.50
2022-08-25T15:44:53.228Z,28.40
2022-08-25T15:47:21.203Z,28.30
2022-08-25T15:49:48.043Z,28.30
2022-08-25T15:52:15.668Z,28.10
2022-08-25T15:54:42.448Z,28.10
2022-08-25T15:57:15.102Z,28.20
2022-08-25T15:59:52.356Z,28.30
2022-08-25T16:02:20.585Z,28.20
2022-08-25T16:04:47.895Z,28.20
2022-08-25T16:07:14.686Z,28.20
2022-08-25T16:09:41.638Z,28.30
2022-08-25T16:12:08.777Z,28.30
2022-08-25T16:14:36.735Z,28.40
2022-08-25T16:17:05.204Z,28.20
2022-08-25T16:19:32.448Z,28.20
2022-08-25T16:22:00.742Z,28.10
2022-08-25T16:24:27.618Z,28.20
2022-08-25T16:26:56.063Z,28.20
2022-08-25T16:29:23.461Z,28.20
2022-08-25T16:31:53.358Z,28.10
2022-08-25T16:34:22.225Z,28.20
2022-08-25T16:36:52.748Z,28.20
2022-08-25T16:39:20.874Z,28.20
2022-08-25T16:41:48.316Z,28.30
2022-08-25T16:44:15.313Z,28.20
2022-08-25T16:46:42.862Z,28.10
2022-08-25T16:49:12.495Z,28.10
2022-08-25T16:51:40.588Z,28.10
2022-08-25T16:54:28.674Z,28.10
2022-08-25T16:56:57.237Z,28.10
2022-08-25T16:59:24.789Z,28.00
2022-08-25T17:01:52.535Z,27.90
2022-08-25T17:04:19.961Z,27.90
2022-08-25T17:06:49.440Z,27.90
2022-08-25T17:09:24.170Z,27.90
2022-08-25T17:11:56.434Z,27.90
2022-08-25T17:14:23.401Z,27.90
2022-08-25T17:16:54.437Z,28.00
2022-08-25T17:19:22.084Z,27.90
2022-08-25T17:21:50.987Z,27.80
2022-08-25T17:24:17.761Z,27.70
2022-08-25T17:26:47.142Z,27.70
2022-08-25T17:29:14.242Z,27.60
2022-08-25T17:31:43.832Z,27.60
2022-08-25T17:34:16.208Z,27.60
2022-08-25T17:36:44.062Z,27.60
2022-08-25T17:39:13.242Z,27.50
2022-08-25T17:41:42.861Z,27.60
2022-08-25T17:44:09.582Z,27.60
2022-08-25T17:46:37.152Z,27.50
2022-08-25T17:49:07.638Z,27.40
2022-08-25T17:51:34.605Z,27.30
2022-08-25T17:54:01.482Z,27.30
2022-08-25T17:56:28.489Z,27.30
2022-08-25T17:58:56.332Z,27.10
2022-08-25T18:01:24.679Z,27.10
2022-08-25T18:03:52.397Z,27.10
2022-08-25T18:06:20.745Z,26.90
2022-08-25T18:08:52.176Z,26.70
2022-08-25T18:11:20.362Z,26.60
2022-08-25T18:13:47.274Z,26.50
2022-08-25T18:16:17.187Z,26.40
2022-08-25T18:18:44.932Z,26.20
2022-08-25T18:21:14.487Z,26.10
2022-08-25T18:23:42.501Z,26.00
2022-08-25T18:26:12.843Z,25.90
2022-08-25T18:28:40.023Z,25.80
2022-08-25T18:31:07.279Z,25.60
2022-08-25T18:33:34.652Z,25.40
2022-08-25T18:36:02.217Z,25.20
2022-08-25T18:38:47.755Z,25.00
2022-08-25T18:41:14.382Z,25.00
2022-08-25T18:43:41.130Z,24.70
2022-08-25T18:46:08.213Z,24.70
2022-08-25T18:48:37.242Z,24.70
2022-08-25T18:51:04.534Z,24.70
2022-08-25T18:53:49.638Z,24.70
2022-08-25T18:56:17.944Z,24.60
2022-08-25T18:58:45.410Z,24.50
2022-08-25T19:01:14.787Z,24.30
2022-08-25T19:03:42.947Z,24.10
2022-08-25T19:06:09.817Z,24.00
2022-08-25T19:08:39.993Z,23.90
2022-08-25T19:11:09.659Z,23.80
2022-08-25T19:13:37.065Z,23.60
2022-08-25T19:16:31.304Z,23.50
2022-08-25T19:18:58.393Z,23.40
2022-08-25T19:21:25.340Z,23.30
2022-08-25T19:23:52.961Z,23.20
2022-08-25T19:26:20.807Z,23.00
2022-08-25T19:28:49.391Z,22.90
2022-08-25T19:31:22.156Z,22.70
2022-08-25T19:33:51.263Z,22.40
2022-08-25T19:36:23.031Z,22.30
2022-08-25T19:38:52.325Z,22.10
2022-08-25T19:41:19.924Z,22.00
2022-08-25T19:43:50.507Z,22.00
2022-08-25T19:46:32.963Z,22.10
2022-08-25T19:49:09.132Z,22.00
2022-08-25T19:51:44.824Z,21.80
2022-08-25T19:54:14.890Z,21.70
2022-08-25T19:56:43.625Z,21.50
2022-08-25T19:59:20.917Z,21.50
2022-08-25T20:01:50.343Z,21.50
2022-08-25T20:04:17.069Z,21.50
2022-08-25T20:06:43.817Z,21.40
2022-08-25T20:09:20.766Z,21.30
2022-08-25T20:12:03.851Z,21.30
2022-08-25T20:14:33.843Z,21.20
2022-08-25T20:17:02.029Z,21.10
2022-08-25T20:19:31.005Z,21.10
2022-08-25T20:21:58.794Z,21.10
2022-08-25T20:24:44.050Z,21.00
2022-08-25T20:27:11.062Z,20.90
2022-08-25T20:29:38.172Z,20.90
2022-08-25T20:32:05.341Z,20.80
2022-08-25T20:34:32.609Z,20.80
2022-08-25T20:37:00.701Z,20.80
2022-08-25T20:39:27.532Z,20.70
2022-08-25T20:41:54.311Z,20.70
2022-08-25T20:44:23.346Z,20.50
2022-08-25T20:46:50.393Z,20.60
2022-08-25T20:49:20.091Z,20.50
2022-08-25T20:51:46.781Z,20.40
2022-08-25T20:54:17.286Z,20.30
2022-08-25T20:56:44.392Z,20.20
2022-08-25T20:59:11.672Z,20.10
2022-08-25T21:01:42.901Z,19.90
2022-08-25T21:04:14.631Z,20.00
2022-08-25T21:06:42.653Z,20.00
2022-08-25T21:09:15.698Z,19.90
2022-08-25T21:11:44.275Z,19.90
2022-08-25T21:14:13.243Z,19.80
2022-08-25T21:16:47.205Z,19.60
2022-08-25T21:19:16.633Z,19.70
2022-08-25T21:21:43.782Z,19.60
2022-08-25T21:24:12.253Z,19.70
2022-08-25T21:26:47.696Z,19.60
2022-08-25T21:29:18.363Z,19.60
2022-08-25T21:31:46.345Z,19.70
2022-08-25T21:34:19.830Z,19.60
2022-08-25T21:36:47.922Z,19.50
2022-08-25T21:39:15.074Z,19.40
2022-08-25T21:41:45.698Z,19.40
2022-08-25T21:44:13.217Z,19.40
2022-08-25T21:46:54.607Z,19.40
2022-08-25T21:49:23.386Z,19.30
2022-08-25T21:51:59.170Z,19.20
2022-08-25T21:54:26.507Z,19.20
2022-08-25T21:57:23.605Z,19.20
2022-08-25T21:59:50.997Z,19.10
2022-08-25T22:02:22.565Z,19.20
2022-08-25T22:04:53.828Z,19.00
2022-08-25T22:07:29.048Z,19.00
2022-08-25T22:10:01.668Z,19.00
2022-08-25T22:12:28.409Z,19.00
2022-08-25T22:14:55.085Z,18.90
2022-08-25T22:17:24.218Z,19.00
2022-08-25T22:19:53.539Z,19.00
2022-08-25T22:22:21.021Z,18.90
2022-08-25T22:24:47.844Z,18.80
2022-08-25T22:27:15.709Z,18.80
2022-08-25T22:29:43.927Z,18.80
2022-08-25T22:32:13.770Z,18.80
2022-08-25T22:34:40.913Z,18.70
2022-08-25T22:37:10.280Z,18.70
2022-08-25T22:39:37.288Z,18.70
2022-08-25T22:42:07.368Z,18.80
2022-08-25T22:44:36.107Z,18.80
2022-08-25T22:47:02.890Z,18.80
2022-08-25T22:49:30.226Z,18.80
2022-08-25T22:51:56.972Z,18.80
2022-08-25T22:54:25.285Z,18.80
2022-08-25T22:56:52.594Z,18.80
2022-08-25T22:59:19.750Z,18.70
2022-08-25T23:01:49.530Z,18.70
2022-08-25T23:04:16.254Z,18.60
2022-08-25T23:06:44.918Z,18.60
2022-08-25T23:09:14.382Z,18.60
2022-08-25T23:11:42.983Z,18.60
2022-08-25T23:14:11.097Z,18.60
2022-08-25T23:16:39.078Z,18.50
2022-08-25T23:19:06.193Z,18.50
2022-08-25T23:21:52.999Z,18.50
2022-08-25T23:24:29.106Z,18.40
2022-08-25T23:27:01.252Z,18.40
2022-08-25T23:29:29.839Z,18.50
2022-08-25T23:31:58.073Z,18.40
2022-08-25T23:34:25.379Z,18.50
2022-08-25T23:36:52.434Z,18.60
2022-08-25T23:39:21.949Z,18.60
2022-08-25T23:41:49.898Z,18.60
2022-08-25T23:44:18.617Z,18.60
2022-08-25T23:46:47.202Z,18.60
2022-08-25T23:49:18.561Z,18.60
2022-08-25T23:51:47.345Z,18.80
2022-08-25T23:54:15.855Z,18.80
2022-08-25T23:56:44.663Z,18.90
2022-08-25T23:59:18.004Z,18.90
